sensor_id;sensor_type;location;lat;lon;timestamp;P1;durP1;ratioP1;P2;durP2;ratioP2
67749;SDS011;54550;48.838;8.828;2023-03-14T00:00:03;3.10;;;1.00;;
67749;SDS011;54550;48.838;8.828;2023-03-14T00:02:33;3.45;;;1.30;;
67749;SDS011;54550;48.838;8.828;2023-03-14T00:04:59;2.72;;;1.60;;
67749;SDS011;54550;48.838;8.828;2023-03-14T00:07:27;1.30;;;0.98;;
67749;SDS011;54550;48.838;8.828;2023-03-14T00:09:56;2.10;;;1.52;;
67749;SDS011;54550;48.838;8.828;2023-03-14T00:12:22;5.30;;;1.70;;
67749;SDS011;54550;48.838;8.828;2023-03-14T00:14:47;5.17;;;1.87;;
67749;SDS011;54550;48.838;8.828;2023-03-14T00:17:13;6.57;;;2.90;;
67749;SDS011;54550;48.838;8.828;2023-03-14T00:19:38;5.77;;;3.33;;
67749;SDS011;54550;48.838;8.828;2023-03-14T00:22:04;7.47;;;2.80;;
67749;SDS011;54550;48.838;8.828;2023-03-14T00:24:29;5.90;;;2.70;;
67749;SDS011;54550;48.838;8.828;2023-03-14T00:26:55;1.37;;;1.27;;
67749;SDS011;54550;48.838;8.828;2023-03-14T00:29:20;2.90;;;1.40;;
67749;SDS011;54550;48.838;8.828;2023-03-14T00:31:46;4.37;;;1.50;;
67749;SDS011;54550;48.838;8.828;2023-03-14T00:34:12;1.63;;;1.40;;
67749;SDS011;54550;48.838;8.828;2023-03-14T00:36:37;1.93;;;1.50;;
67749;SDS011;54550;48.838;8.828;2023-03-14T00:39:03;2.07;;;1.30;;
67749;SDS011;54550;48.838;8.828;2023-03-14T00:41:28;1.20;;;1.07;;
67749;SDS011;54550;48.838;8.828;2023-03-14T00:43:55;1.25;;;1.15;;
67749;SDS011;54550;48.838;8.828;2023-03-14T00:46:21;1.10;;;0.90;;
67749;SDS011;54550;48.838;8.828;2023-03-14T00:48:46;2.03;;;1.33;;
67749;SDS011;54550;48.838;8.828;2023-03-14T00:51:12;1.30;;;0.90;;
67749;SDS011;54550;48.838;8.828;2023-03-14T00:53:40;1.38;;;0.90;;
67749;SDS011;54550;48.838;8.828;2023-03-14T00:56:07;1.75;;;1.10;;
67749;SDS011;54550;48.838;8.828;2023-03-14T00:58:34;2.55;;;1.42;;
67749;SDS011;54550;48.838;8.828;2023-03-14T01:01:10;1.20;;;1.10;;
67749;SDS011;54550;48.838;8.828;2023-03-14T01:03:39;2.03;;;0.90;;
67749;SDS011;54550;48.838;8.828;2023-03-14T01:06:12;1.67;;;1.57;;
67749;SDS011;54550;48.838;8.828;2023-03-14T01:08:46;1.00;;;0.90;;
67749;SDS011;54550;48.838;8.828;2023-03-14T01:11:14;4.68;;;1.10;;
67749;SDS011;54550;48.838;8.828;2023-03-14T01:13:41;3.40;;;1.25;;
67749;SDS011;54550;48.838;8.828;2023-03-14T01:16:08;2.03;;;1.30;;
67749;SDS011;54550;48.838;8.828;2023-03-14T01:18:35;1.10;;;1.00;;
67749;SDS011;54550;48.838;8.828;2023-03-14T01:21:03;1.20;;;0.93;;
67749;SDS011;54550;48.838;8.828;2023-03-14T01:23:34;1.13;;;0.73;;
67749;SDS011;54550;48.838;8.828;2023-03-14T01:25:59;2.03;;;0.93;;
67749;SDS011;54550;48.838;8.828;2023-03-14T01:28:25;3.07;;;1.40;;
67749;SDS011;54550;48.838;8.828;2023-03-14T01:30:50;1.50;;;1.00;;
67749;SDS011;54550;48.838;8.828;2023-03-14T01:33:16;1.10;;;0.80;;
67749;SDS011;54550;48.838;8.828;2023-03-14T01:35:41;3.70;;;1.50;;
67749;SDS011;54550;48.838;8.828;2023-03-14T01:38:07;1.10;;;0.80;;
67749;SDS011;54550;48.838;8.828;2023-03-14T01:40:32;1.23;;;1.13;;
67749;SDS011;54550;48.838;8.828;2023-03-14T01:43:05;1.20;;;0.70;;
67749;SDS011;54550;48.838;8.828;2023-03-14T01:51:34;1.65;;;0.60;;
67749;SDS011;54550;48.838;8.828;2023-03-14T01:54:07;2.90;;;0.95;;
67749;SDS011;54550;48.838;8.828;2023-03-14T01:56:40;1.00;;;0.90;;
67749;SDS011;54550;48.838;8.828;2023-03-14T01:59:08;1.10;;;0.88;;
67749;SDS011;54550;48.838;8.828;2023-03-14T02:01:35;1.40;;;0.90;;
67749;SDS011;54550;48.838;8.828;2023-03-14T02:04:03;1.50;;;0.73;;
67749;SDS011;54550;48.838;8.828;2023-03-14T02:06:34;3.28;;;0.90;;
67749;SDS011;54550;48.838;8.828;2023-03-14T02:09:06;1.23;;;0.90;;
67749;SDS011;54550;48.838;8.828;2023-03-14T02:11:31;4.13;;;1.23;;
67749;SDS011;54550;48.838;8.828;2023-03-14T02:13:58;1.92;;;0.75;;
67749;SDS011;54550;48.838;8.828;2023-03-14T02:16:24;2.53;;;0.70;;
67749;SDS011;54550;48.838;8.828;2023-03-14T02:18:49;3.90;;;1.23;;
67749;SDS011;54550;48.838;8.828;2023-03-14T02:21:20;1.73;;;0.97;;
67749;SDS011;54550;48.838;8.828;2023-03-14T02:27:05;1.20;;;0.80;;
67749;SDS011;54550;48.838;8.828;2023-03-14T02:29:40;3.95;;;0.85;;
67749;SDS011;54550;48.838;8.828;2023-03-14T02:32:31;1.30;;;0.60;;
67749;SDS011;54550;48.838;8.828;2023-03-14T02:35:03;1.00;;;0.55;;
67749;SDS011;54550;48.838;8.828;2023-03-14T02:37:53;2.35;;;0.90;;
67749;SDS011;54550;48.838;8.828;2023-03-14T02:40:24;6.68;;;0.68;;
67749;SDS011;54550;48.838;8.828;2023-03-14T02:42:50;3.53;;;0.83;;
67749;SDS011;54550;48.838;8.828;2023-03-14T02:47:43;1.37;;;0.60;;
67749;SDS011;54550;48.838;8.828;2023-03-14T02:50:12;6.88;;;1.17;;
67749;SDS011;54550;48.838;8.828;2023-03-14T02:52:40;0.90;;;0.60;;
67749;SDS011;54550;48.838;8.828;2023-03-14T02:55:06;0.90;;;0.80;;
67749;SDS011;54550;48.838;8.828;2023-03-14T02:57:32;3.90;;;1.00;;
67749;SDS011;54550;48.838;8.828;2023-03-14T02:59:58;1.53;;;1.00;;
67749;SDS011;54550;48.838;8.828;2023-03-14T03:02:25;2.17;;;0.70;;
67749;SDS011;54550;48.838;8.828;2023-03-14T03:04:51;1.00;;;0.55;;
67749;SDS011;54550;48.838;8.828;2023-03-14T03:07:16;1.87;;;0.87;;
67749;SDS011;54550;48.838;8.828;2023-03-14T03:09:42;3.00;;;0.77;;
67749;SDS011;54550;48.838;8.828;2023-03-14T03:12:08;2.80;;;0.63;;
67749;SDS011;54550;48.838;8.828;2023-03-14T03:14:33;1.00;;;0.70;;
67749;SDS011;54550;48.838;8.828;2023-03-14T03:16:59;2.03;;;0.73;;
67749;SDS011;54550;48.838;8.828;2023-03-14T03:19:24;15.20;;;1.20;;
67749;SDS011;54550;48.838;8.828;2023-03-14T03:21:50;7.43;;;1.00;;
67749;SDS011;54550;48.838;8.828;2023-03-14T03:24:16;3.03;;;0.80;;
67749;SDS011;54550;48.838;8.828;2023-03-14T03:26:41;4.27;;;0.77;;
67749;SDS011;54550;48.838;8.828;2023-03-14T03:29:07;2.70;;;1.00;;
67749;SDS011;54550;48.838;8.828;2023-03-14T03:31:32;2.13;;;1.00;;
67749;SDS011;54550;48.838;8.828;2023-03-14T03:33:58;1.50;;;0.80;;
67749;SDS011;54550;48.838;8.828;2023-03-14T03:36:24;6.43;;;1.20;;
67749;SDS011;54550;48.838;8.828;2023-03-14T03:38:51;5.07;;;1.40;;
67749;SDS011;54550;48.838;8.828;2023-03-14T03:41:16;1.73;;;0.67;;
67749;SDS011;54550;48.838;8.828;2023-03-14T03:43:42;1.20;;;0.70;;
67749;SDS011;54550;48.838;8.828;2023-03-14T03:46:08;1.67;;;0.80;;
67749;SDS011;54550;48.838;8.828;2023-03-14T03:48:34;1.45;;;0.80;;
67749;SDS011;54550;48.838;8.828;2023-03-14T03:51:00;2.20;;;0.93;;
67749;SDS011;54550;48.838;8.828;2023-03-14T03:53:25;1.60;;;0.83;;
67749;SDS011;54550;48.838;8.828;2023-03-14T03:55:51;2.57;;;1.00;;
67749;SDS011;54550;48.838;8.828;2023-03-14T03:58:17;4.00;;;0.83;;
67749;SDS011;54550;48.838;8.828;2023-03-14T04:00:43;4.47;;;2.30;;
67749;SDS011;54550;48.838;8.828;2023-03-14T04:03:08;5.40;;;1.00;;
67749;SDS011;54550;48.838;8.828;2023-03-14T04:05:34;7.03;;;1.80;;
67749;SDS011;54550;48.838;8.828;2023-03-14T04:08:00;2.10;;;0.80;;
67749;SDS011;54550;48.838;8.828;2023-03-14T04:10:26;18.63;;;0.95;;
67749;SDS011;54550;48.838;8.828;2023-03-14T04:12:51;1.87;;;0.80;;
67749;SDS011;54550;48.838;8.828;2023-03-14T04:15:17;1.73;;;0.60;;
67749;SDS011;54550;48.838;8.828;2023-03-14T04:17:43;5.13;;;0.90;;
67749;SDS011;54550;48.838;8.828;2023-03-14T04:20:09;4.73;;;1.37;;
67749;SDS011;54550;48.838;8.828;2023-03-14T04:22:38;4.80;;;1.23;;
67749;SDS011;54550;48.838;8.828;2023-03-14T04:25:04;7.30;;;0.90;;
67749;SDS011;54550;48.838;8.828;2023-03-14T04:27:31;6.05;;;1.00;;
67749;SDS011;54550;48.838;8.828;2023-03-14T04:29:57;8.47;;;1.10;;
67749;SDS011;54550;48.838;8.828;2023-03-14T04:32:22;1.63;;;0.90;;
67749;SDS011;54550;48.838;8.828;2023-03-14T04:34:48;4.40;;;0.87;;
67749;SDS011;54550;48.838;8.828;2023-03-14T04:37:14;5.37;;;1.33;;
67749;SDS011;54550;48.838;8.828;2023-03-14T04:39:39;1.80;;;1.37;;
67749;SDS011;54550;48.838;8.828;2023-03-14T04:42:05;8.00;;;0.80;;
67749;SDS011;54550;48.838;8.828;2023-03-14T04:44:31;2.90;;;1.13;;
67749;SDS011;54550;48.838;8.828;2023-03-14T04:46:56;4.13;;;1.20;;
67749;SDS011;54550;48.838;8.828;2023-03-14T04:49:22;2.77;;;0.90;;
67749;SDS011;54550;48.838;8.828;2023-03-14T04:51:48;12.20;;;1.30;;
67749;SDS011;54550;48.838;8.828;2023-03-14T04:54:16;5.57;;;1.00;;
67749;SDS011;54550;48.838;8.828;2023-03-14T04:56:42;3.10;;;0.90;;
67749;SDS011;54550;48.838;8.828;2023-03-14T04:59:08;1.90;;;0.73;;
67749;SDS011;54550;48.838;8.828;2023-03-14T05:01:34;4.77;;;2.20;;
67749;SDS011;54550;48.838;8.828;2023-03-14T05:03:59;3.77;;;1.10;;
67749;SDS011;54550;48.838;8.828;2023-03-14T05:06:25;2.50;;;0.80;;
67749;SDS011;54550;48.838;8.828;2023-03-14T05:08:50;3.40;;;1.30;;
67749;SDS011;54550;48.838;8.828;2023-03-14T05:11:16;3.63;;;1.07;;
67749;SDS011;54550;48.838;8.828;2023-03-14T05:13:42;4.67;;;0.90;;
67749;SDS011;54550;48.838;8.828;2023-03-14T05:16:08;1.33;;;0.70;;
67749;SDS011;54550;48.838;8.828;2023-03-14T05:18:35;1.58;;;0.90;;
67749;SDS011;54550;48.838;8.828;2023-03-14T05:21:01;2.67;;;0.97;;
67749;SDS011;54550;48.838;8.828;2023-03-14T05:23:27;4.20;;;0.87;;
67749;SDS011;54550;48.838;8.828;2023-03-14T05:25:52;4.33;;;0.80;;
67749;SDS011;54550;48.838;8.828;2023-03-14T05:28:18;5.80;;;1.30;;
67749;SDS011;54550;48.838;8.828;2023-03-14T05:30:43;4.53;;;1.23;;
67749;SDS011;54550;48.838;8.828;2023-03-14T05:33:09;4.23;;;1.20;;
67749;SDS011;54550;48.838;8.828;2023-03-14T05:35:35;1.77;;;0.90;;
67749;SDS011;54550;48.838;8.828;2023-03-14T05:38:00;8.90;;;0.80;;
67749;SDS011;54550;48.838;8.828;2023-03-14T05:40:26;4.07;;;1.27;;
67749;SDS011;54550;48.838;8.828;2023-03-14T05:42:51;2.93;;;0.80;;
67749;SDS011;54550;48.838;8.828;2023-03-14T05:45:17;2.37;;;1.00;;
67749;SDS011;54550;48.838;8.828;2023-03-14T05:47:43;3.90;;;0.83;;
67749;SDS011;54550;48.838;8.828;2023-03-14T05:50:09;2.60;;;0.60;;
67749;SDS011;54550;48.838;8.828;2023-03-14T05:52:35;7.30;;;1.15;;
67749;SDS011;54550;48.838;8.828;2023-03-14T05:55:00;20.40;;;1.63;;
67749;SDS011;54550;48.838;8.828;2023-03-14T05:57:26;2.90;;;0.77;;
67749;SDS011;54550;48.838;8.828;2023-03-14T05:59:51;1.80;;;0.70;;
67749;SDS011;54550;48.838;8.828;2023-03-14T06:02:17;4.87;;;0.70;;
67749;SDS011;54550;48.838;8.828;2023-03-14T06:04:42;4.00;;;0.67;;
67749;SDS011;54550;48.838;8.828;2023-03-14T06:07:08;0.90;;;0.50;;
67749;SDS011;54550;48.838;8.828;2023-03-14T06:09:34;2.60;;;0.80;;
67749;SDS011;54550;48.838;8.828;2023-03-14T06:11:59;2.80;;;0.77;;
67749;SDS011;54550;48.838;8.828;2023-03-14T06:14:25;1.73;;;0.90;;
67749;SDS011;54550;48.838;8.828;2023-03-14T06:16:50;1.90;;;1.00;;
67749;SDS011;54550;48.838;8.828;2023-03-14T06:19:17;6.57;;;0.50;;
67749;SDS011;54550;48.838;8.828;2023-03-14T06:21:43;2.93;;;0.80;;
67749;SDS011;54550;48.838;8.828;2023-03-14T06:24:08;2.57;;;0.80;;
67749;SDS011;54550;48.838;8.828;2023-03-14T06:26:34;1.03;;;0.50;;
67749;SDS011;54550;48.838;8.828;2023-03-14T06:28:59;1.57;;;0.57;;
67749;SDS011;54550;48.838;8.828;2023-03-14T06:31:28;1.55;;;0.60;;
67749;SDS011;54550;48.838;8.828;2023-03-14T06:33:55;5.35;;;0.80;;
67749;SDS011;54550;48.838;8.828;2023-03-14T06:36:20;8.10;;;0.80;;
67749;SDS011;54550;48.838;8.828;2023-03-14T06:38:46;4.93;;;0.80;;
67749;SDS011;54550;48.838;8.828;2023-03-14T06:41:11;5.47;;;0.77;;
67749;SDS011;54550;48.838;8.828;2023-03-14T06:43:37;3.27;;;1.00;;
67749;SDS011;54550;48.838;8.828;2023-03-14T06:46:03;2.27;;;0.77;;
67749;SDS011;54550;48.838;8.828;2023-03-14T06:48:29;3.43;;;0.90;;
67749;SDS011;54550;48.838;8.828;2023-03-14T06:50:54;1.30;;;0.50;;
67749;SDS011;54550;48.838;8.828;2023-03-14T06:53:20;2.40;;;0.90;;
67749;SDS011;54550;48.838;8.828;2023-03-14T06:55:45;2.30;;;1.03;;
67749;SDS011;54550;48.838;8.828;2023-03-14T06:58:11;2.37;;;0.80;;
67749;SDS011;54550;48.838;8.828;2023-03-14T07:00:37;1.47;;;0.63;;
67749;SDS011;54550;48.838;8.828;2023-03-14T07:03:02;1.10;;;0.50;;
67749;SDS011;54550;48.838;8.828;2023-03-14T07:05:28;1.40;;;0.40;;
67749;SDS011;54550;48.838;8.828;2023-03-14T07:07:54;1.40;;;0.70;;
67749;SDS011;54550;48.838;8.828;2023-03-14T07:10:19;0.83;;;0.70;;
67749;SDS011;54550;48.838;8.828;2023-03-14T07:12:45;2.00;;;0.60;;
67749;SDS011;54550;48.838;8.828;2023-03-14T07:15:11;0.90;;;0.53;;
67749;SDS011;54550;48.838;8.828;2023-03-14T07:17:36;2.13;;;0.53;;
67749;SDS011;54550;48.838;8.828;2023-03-14T07:20:02;1.70;;;0.67;;
67749;SDS011;54550;48.838;8.828;2023-03-14T07:22:29;3.67;;;0.80;;
67749;SDS011;54550;48.838;8.828;2023-03-14T07:24:55;2.40;;;0.40;;
67749;SDS011;54550;48.838;8.828;2023-03-14T07:27:21;2.60;;;1.23;;
67749;SDS011;54550;48.838;8.828;2023-03-14T07:29:46;1.87;;;0.50;;
67749;SDS011;54550;48.838;8.828;2023-03-14T07:32:12;1.97;;;0.50;;
67749;SDS011;54550;48.838;8.828;2023-03-14T07:34:40;15.30;;;0.97;;
67749;SDS011;54550;48.838;8.828;2023-03-14T07:37:06;1.40;;;0.70;;
67749;SDS011;54550;48.838;8.828;2023-03-14T07:39:32;1.83;;;0.50;;
67749;SDS011;54550;48.838;8.828;2023-03-14T07:41:57;1.77;;;0.73;;
67749;SDS011;54550;48.838;8.828;2023-03-14T07:44:23;3.13;;;0.40;;
67749;SDS011;54550;48.838;8.828;2023-03-14T07:46:48;0.80;;;0.40;;
67749;SDS011;54550;48.838;8.828;2023-03-14T07:49:14;2.60;;;0.47;;
67749;SDS011;54550;48.838;8.828;2023-03-14T07:51:39;0.70;;;0.30;;
67749;SDS011;54550;48.838;8.828;2023-03-14T07:54:05;1.07;;;0.53;;
67749;SDS011;54550;48.838;8.828;2023-03-14T07:56:31;5.07;;;0.50;;
67749;SDS011;54550;48.838;8.828;2023-03-14T07:58:56;1.53;;;0.70;;
67749;SDS011;54550;48.838;8.828;2023-03-14T08:01:22;1.33;;;0.50;;
67749;SDS011;54550;48.838;8.828;2023-03-14T08:03:48;0.70;;;0.30;;
67749;SDS011;54550;48.838;8.828;2023-03-14T08:06:13;2.70;;;0.70;;
67749;SDS011;54550;48.838;8.828;2023-03-14T08:08:39;1.40;;;0.60;;
67749;SDS011;54550;48.838;8.828;2023-03-14T08:11:05;0.90;;;0.50;;
67749;SDS011;54550;48.838;8.828;2023-03-14T08:13:33;5.50;;;1.00;;
67749;SDS011;54550;48.838;8.828;2023-03-14T08:15:59;4.40;;;0.67;;
67749;SDS011;54550;48.838;8.828;2023-03-14T08:18:25;1.00;;;0.47;;
67749;SDS011;54550;48.838;8.828;2023-03-14T08:20:50;1.10;;;0.50;;
67749;SDS011;54550;48.838;8.828;2023-03-14T08:23:16;2.90;;;0.50;;
67749;SDS011;54550;48.838;8.828;2023-03-14T08:25:41;1.17;;;0.50;;
67749;SDS011;54550;48.838;8.828;2023-03-14T08:28:08;1.87;;;0.60;;
67749;SDS011;54550;48.838;8.828;2023-03-14T08:30:33;5.90;;;0.50;;
67749;SDS011;54550;48.838;8.828;2023-03-14T08:32:59;1.00;;;0.50;;
67749;SDS011;54550;48.838;8.828;2023-03-14T08:35:25;1.00;;;0.50;;
67749;SDS011;54550;48.838;8.828;2023-03-14T08:37:50;1.07;;;0.60;;
67749;SDS011;54550;48.838;8.828;2023-03-14T08:40:17;1.53;;;0.60;;
67749;SDS011;54550;48.838;8.828;2023-03-14T08:42:43;1.97;;;0.70;;
67749;SDS011;54550;48.838;8.828;2023-03-14T08:45:11;11.10;;;1.40;;
67749;SDS011;54550;48.838;8.828;2023-03-14T08:47:39;0.80;;;0.50;;
67749;SDS011;54550;48.838;8.828;2023-03-14T08:50:05;1.67;;;0.50;;
67749;SDS011;54550;48.838;8.828;2023-03-14T08:52:31;1.40;;;0.77;;
67749;SDS011;54550;48.838;8.828;2023-03-14T08:54:57;9.50;;;0.70;;
67749;SDS011;54550;48.838;8.828;2023-03-14T08:57:23;6.40;;;0.70;;
67749;SDS011;54550;48.838;8.828;2023-03-14T08:59:52;2.20;;;0.50;;
67749;SDS011;54550;48.838;8.828;2023-03-14T09:02:20;1.13;;;0.60;;
67749;SDS011;54550;48.838;8.828;2023-03-14T09:04:45;1.10;;;0.50;;
67749;SDS011;54550;48.838;8.828;2023-03-14T09:07:11;2.10;;;0.40;;
67749;SDS011;54550;48.838;8.828;2023-03-14T09:09:36;1.43;;;1.07;;
67749;SDS011;54550;48.838;8.828;2023-03-14T09:12:02;1.10;;;0.40;;
67749;SDS011;54550;48.838;8.828;2023-03-14T09:14:28;1.57;;;0.43;;
67749;SDS011;54550;48.838;8.828;2023-03-14T09:16:54;4.10;;;0.60;;
67749;SDS011;54550;48.838;8.828;2023-03-14T09:19:20;0.80;;;0.43;;
67749;SDS011;54550;48.838;8.828;2023-03-14T09:21:45;2.33;;;0.80;;
67749;SDS011;54550;48.838;8.828;2023-03-14T09:24:11;2.70;;;0.73;;
67749;SDS011;54550;48.838;8.828;2023-03-14T09:26:37;1.10;;;0.63;;
67749;SDS011;54550;48.838;8.828;2023-03-14T09:29:02;0.70;;;0.30;;
67749;SDS011;54550;48.838;8.828;2023-03-14T09:31:28;0.70;;;0.40;;
67749;SDS011;54550;48.838;8.828;2023-03-14T09:33:54;1.63;;;0.60;;
67749;SDS011;54550;48.838;8.828;2023-03-14T09:36:20;1.00;;;0.40;;
67749;SDS011;54550;48.838;8.828;2023-03-14T09:38:45;2.23;;;0.40;;
67749;SDS011;54550;48.838;8.828;2023-03-14T09:41:12;1.47;;;0.60;;
67749;SDS011;54550;48.838;8.828;2023-03-14T09:43:46;0.70;;;0.30;;
67749;SDS011;54550;48.838;8.828;2023-03-14T09:46:15;0.97;;;0.30;;
67749;SDS011;54550;48.838;8.828;2023-03-14T09:48:41;1.77;;;0.67;;
67749;SDS011;54550;48.838;8.828;2023-03-14T09:51:16;0.87;;;0.37;;
67749;SDS011;54550;48.838;8.828;2023-03-14T09:53:46;2.20;;;0.60;;
67749;SDS011;54550;48.838;8.828;2023-03-14T09:56:14;0.77;;;0.37;;
67749;SDS011;54550;48.838;8.828;2023-03-14T09:58:44;0.90;;;0.50;;
67749;SDS011;54550;48.838;8.828;2023-03-14T10:01:15;1.00;;;0.30;;
67749;SDS011;54550;48.838;8.828;2023-03-14T10:03:45;0.90;;;0.30;;
67749;SDS011;54550;48.838;8.828;2023-03-14T10:06:12;1.00;;;0.50;;
67749;SDS011;54550;48.838;8.828;2023-03-14T10:08:42;2.40;;;0.60;;
67749;SDS011;54550;48.838;8.828;2023-03-14T10:11:13;1.27;;;0.40;;
67749;SDS011;54550;48.838;8.828;2023-03-14T10:16:30;1.57;;;0.33;;
67749;SDS011;54550;48.838;8.828;2023-03-14T10:19:02;0.80;;;0.40;;
67749;SDS011;54550;48.838;8.828;2023-03-14T10:21:42;3.10;;;0.50;;
67749;SDS011;54550;48.838;8.828;2023-03-14T10:24:31;0.80;;;0.40;;
67749;SDS011;54550;48.838;8.828;2023-03-14T10:27:00;0.70;;;0.40;;
67749;SDS011;54550;48.838;8.828;2023-03-14T10:29:29;0.80;;;0.30;;
67749;SDS011;54550;48.838;8.828;2023-03-14T10:31:59;0.80;;;0.50;;
67749;SDS011;54550;48.838;8.828;2023-03-14T10:34:34;1.00;;;0.50;;
67749;SDS011;54550;48.838;8.828;2023-03-14T10:39:47;1.45;;;0.50;;
67749;SDS011;54550;48.838;8.828;2023-03-14T10:42:28;1.43;;;0.70;;
67749;SDS011;54550;48.838;8.828;2023-03-14T10:44:57;2.28;;;0.50;;
67749;SDS011;54550;48.838;8.828;2023-03-14T10:47:25;1.15;;;0.60;;
67749;SDS011;54550;48.838;8.828;2023-03-14T10:49:53;0.80;;;0.40;;
67749;SDS011;54550;48.838;8.828;2023-03-14T10:52:27;0.85;;;0.60;;
67749;SDS011;54550;48.838;8.828;2023-03-14T10:54:58;0.80;;;0.50;;
67749;SDS011;54550;48.838;8.828;2023-03-14T10:57:25;0.70;;;0.30;;
67749;SDS011;54550;48.838;8.828;2023-03-14T10:59:51;0.70;;;0.30;;
67749;SDS011;54550;48.838;8.828;2023-03-14T11:13:08;0.70;;;0.40;;
67749;SDS011;54550;48.838;8.828;2023-03-14T11:21:48;0.70;;;0.38;;
67749;SDS011;54550;48.838;8.828;2023-03-14T11:27:24;0.80;;;0.32;;
67749;SDS011;54550;48.838;8.828;2023-03-14T11:35:30;0.70;;;0.40;;
67749;SDS011;54550;48.838;8.828;2023-03-14T11:41:01;1.00;;;0.35;;
67749;SDS011;54550;48.838;8.828;2023-03-14T11:43:32;0.90;;;0.50;;
67749;SDS011;54550;48.838;8.828;2023-03-14T11:46:06;0.80;;;0.60;;
67749;SDS011;54550;48.838;8.828;2023-03-14T11:49:03;0.70;;;0.30;;
67749;SDS011;54550;48.838;8.828;2023-03-14T11:51:50;1.20;;;0.60;;
67749;SDS011;54550;48.838;8.828;2023-03-14T11:57:15;0.70;;;0.40;;
67749;SDS011;54550;48.838;8.828;2023-03-14T12:05:54;0.80;;;0.52;;
67749;SDS011;54550;48.838;8.828;2023-03-14T12:13:38;2.90;;;0.60;;
67749;SDS011;54550;48.838;8.828;2023-03-14T12:19:24;3.15;;;1.42;;
67749;SDS011;54550;48.838;8.828;2023-03-14T12:21:57;1.40;;;1.30;;
67749;SDS011;54550;48.838;8.828;2023-03-14T12:24:31;3.55;;;1.35;;
67749;SDS011;54550;48.838;8.828;2023-03-14T12:27:01;2.17;;;0.93;;
67749;SDS011;54550;48.838;8.828;2023-03-14T12:29:28;2.55;;;0.90;;
67749;SDS011;54550;48.838;8.828;2023-03-14T12:34:30;2.15;;;0.77;;
67749;SDS011;54550;48.838;8.828;2023-03-14T12:37:10;2.50;;;0.87;;
67749;SDS011;54550;48.838;8.828;2023-03-14T12:42:37;2.43;;;0.67;;
67749;SDS011;54550;48.838;8.828;2023-03-14T12:47:52;2.00;;;0.70;;
67749;SDS011;54550;48.838;8.828;2023-03-14T12:51:13;1.93;;;0.70;;
67749;SDS011;54550;48.838;8.828;2023-03-14T12:59:39;2.70;;;0.77;;
67749;SDS011;54550;48.838;8.828;2023-03-14T13:02:17;2.20;;;0.70;;
67749;SDS011;54550;48.838;8.828;2023-03-14T13:10:19;1.58;;;0.80;;
67749;SDS011;54550;48.838;8.828;2023-03-14T13:12:57;2.40;;;0.50;;
67749;SDS011;54550;48.838;8.828;2023-03-14T13:15:47;2.45;;;0.70;;
67749;SDS011;54550;48.838;8.828;2023-03-14T13:18:35;3.00;;;0.63;;
67749;SDS011;54550;48.838;8.828;2023-03-14T13:23:58;2.75;;;0.90;;
67749;SDS011;54550;48.838;8.828;2023-03-14T13:26:31;1.55;;;0.70;;
67749;SDS011;54550;48.838;8.828;2023-03-14T13:29:08;2.33;;;0.80;;
67749;SDS011;54550;48.838;8.828;2023-03-14T13:31:43;4.67;;;0.80;;
67749;SDS011;54550;48.838;8.828;2023-03-14T13:34:10;1.80;;;0.80;;
67749;SDS011;54550;48.838;8.828;2023-03-14T13:36:36;4.77;;;0.90;;
67749;SDS011;54550;48.838;8.828;2023-03-14T13:39:03;2.63;;;0.67;;
67749;SDS011;54550;48.838;8.828;2023-03-14T13:41:37;3.10;;;0.87;;
67749;SDS011;54550;48.838;8.828;2023-03-14T13:44:05;2.40;;;0.60;;
67749;SDS011;54550;48.838;8.828;2023-03-14T13:46:34;2.50;;;0.70;;
67749;SDS011;54550;48.838;8.828;2023-03-14T13:49:01;0.90;;;0.50;;
67749;SDS011;54550;48.838;8.828;2023-03-14T13:51:29;4.15;;;0.82;;
67749;SDS011;54550;48.838;8.828;2023-03-14T13:53:58;2.63;;;0.60;;
67749;SDS011;54550;48.838;8.828;2023-03-14T13:56:26;2.55;;;0.60;;
67749;SDS011;54550;48.838;8.828;2023-03-14T13:58:54;9.77;;;0.88;;
67749;SDS011;54550;48.838;8.828;2023-03-14T14:04:14;6.15;;;0.82;;
67749;SDS011;54550;48.838;8.828;2023-03-14T14:06:54;1.77;;;0.80;;
67749;SDS011;54550;48.838;8.828;2023-03-14T14:12:04;2.90;;;0.85;;
67749;SDS011;54550;48.838;8.828;2023-03-14T14:14:39;10.68;;;0.90;;
67749;SDS011;54550;48.838;8.828;2023-03-14T14:17:07;4.00;;;1.00;;
67749;SDS011;54550;48.838;8.828;2023-03-14T14:19:38;5.20;;;0.90;;
67749;SDS011;54550;48.838;8.828;2023-03-14T14:22:05;1.50;;;0.73;;
67749;SDS011;54550;48.838;8.828;2023-03-14T14:24:32;1.67;;;0.65;;
67749;SDS011;54550;48.838;8.828;2023-03-14T14:27:00;2.45;;;0.82;;
67749;SDS011;54550;48.838;8.828;2023-03-14T14:29:33;1.67;;;1.27;;
67749;SDS011;54550;48.838;8.828;2023-03-14T14:34:46;10.45;;;1.52;;
67749;SDS011;54550;48.838;8.828;2023-03-14T14:37:22;3.63;;;0.95;;
67749;SDS011;54550;48.838;8.828;2023-03-14T14:39:54;6.88;;;1.00;;
67749;SDS011;54550;48.838;8.828;2023-03-14T14:42:24;6.20;;;1.40;;
67749;SDS011;54550;48.838;8.828;2023-03-14T14:44:52;4.25;;;0.90;;
67749;SDS011;54550;48.838;8.828;2023-03-14T14:47:19;5.70;;;1.38;;
67749;SDS011;54550;48.838;8.828;2023-03-14T14:49:47;3.00;;;0.85;;
67749;SDS011;54550;48.838;8.828;2023-03-14T14:52:15;6.28;;;1.23;;
67749;SDS011;54550;48.838;8.828;2023-03-14T14:54:44;4.18;;;1.02;;
67749;SDS011;54550;48.838;8.828;2023-03-14T14:57:27;6.75;;;1.17;;
67749;SDS011;54550;48.838;8.828;2023-03-14T15:00:02;6.57;;;1.50;;
67749;SDS011;54550;48.838;8.828;2023-03-14T15:02:37;3.83;;;1.20;;
67749;SDS011;54550;48.838;8.828;2023-03-14T15:05:21;8.90;;;1.60;;
67749;SDS011;54550;48.838;8.828;2023-03-14T15:07:49;2.20;;;1.00;;
67749;SDS011;54550;48.838;8.828;2023-03-14T15:10:21;3.83;;;1.10;;
67749;SDS011;54550;48.838;8.828;2023-03-14T15:12:48;1.33;;;1.00;;
67749;SDS011;54550;48.838;8.828;2023-03-14T15:15:14;2.60;;;1.03;;
67749;SDS011;54550;48.838;8.828;2023-03-14T15:17:40;5.05;;;1.27;;
67749;SDS011;54550;48.838;8.828;2023-03-14T15:20:09;11.00;;;1.13;;
67749;SDS011;54550;48.838;8.828;2023-03-14T15:22:38;3.72;;;0.98;;
67749;SDS011;54550;48.838;8.828;2023-03-14T15:25:04;5.38;;;1.10;;
67749;SDS011;54550;48.838;8.828;2023-03-14T15:27:30;5.57;;;1.00;;
67749;SDS011;54550;48.838;8.828;2023-03-14T15:29:57;5.55;;;1.15;;
67749;SDS011;54550;48.838;8.828;2023-03-14T15:32:23;2.85;;;1.10;;
67749;SDS011;54550;48.838;8.828;2023-03-14T15:34:49;1.10;;;0.90;;
67749;SDS011;54550;48.838;8.828;2023-03-14T15:37:15;9.20;;;0.87;;
67749;SDS011;54550;48.838;8.828;2023-03-14T15:39:42;2.75;;;0.90;;
67749;SDS011;54550;48.838;8.828;2023-03-14T15:42:08;3.03;;;1.13;;
67749;SDS011;54550;48.838;8.828;2023-03-14T15:44:34;7.10;;;1.00;;
67749;SDS011;54550;48.838;8.828;2023-03-14T15:47:00;1.42;;;0.68;;
67749;SDS011;54550;48.838;8.828;2023-03-14T15:49:26;7.80;;;1.70;;
67749;SDS011;54550;48.838;8.828;2023-03-14T15:51:52;7.43;;;1.45;;
67749;SDS011;54550;48.838;8.828;2023-03-14T15:54:17;2.77;;;0.80;;
67749;SDS011;54550;48.838;8.828;2023-03-14T15:56:43;4.20;;;1.03;;
67749;SDS011;54550;48.838;8.828;2023-03-14T15:59:08;2.40;;;1.07;;
67749;SDS011;54550;48.838;8.828;2023-03-14T16:01:34;3.60;;;0.70;;
67749;SDS011;54550;48.838;8.828;2023-03-14T16:04:00;3.90;;;1.00;;
67749;SDS011;54550;48.838;8.828;2023-03-14T16:06:27;5.05;;;0.98;;
67749;SDS011;54550;48.838;8.828;2023-03-14T16:08:53;3.27;;;0.97;;
67749;SDS011;54550;48.838;8.828;2023-03-14T16:11:18;3.77;;;0.93;;
67749;SDS011;54550;48.838;8.828;2023-03-14T16:13:45;6.28;;;1.27;;
67749;SDS011;54550;48.838;8.828;2023-03-14T16:16:10;12.20;;;1.50;;
67749;SDS011;54550;48.838;8.828;2023-03-14T16:18:40;4.50;;;1.33;;
67749;SDS011;54550;48.838;8.828;2023-03-14T16:21:07;4.70;;;1.30;;
67749;SDS011;54550;48.838;8.828;2023-03-14T16:23:36;5.60;;;0.95;;
67749;SDS011;54550;48.838;8.828;2023-03-14T16:26:03;8.43;;;1.20;;